Surface/Precipitation History
12/17/2014 02:32  to  12/18/2014 02:32
Change End Date:
Date/Time
(MST)
Sf
Temp Chem Water Layer Surface Precipitation
Sf Sub Frz Factor Pct Depth IcePct Cond Salin Type Intens Accum Rate
12/18/2014 02:16 Chemically Wet 30.4F 32F 30F 95 6% 0.00 in 0% 14 mhos 1571 Unidentified Slight 0.01 in 0.0 iph
12/18/2014 02:10 Chemically Wet 30.6F 32F 30F 95 6% 0.00 in 0% 14 mhos 1532 Unidentified Slight 0.01 in 0.0 iph
12/18/2014 02:00 Chemically Wet 30.6F 32F 31F 95 5% - 7% 12 mhos 1318 Snow Slight 0.01 in 0.0 iph
12/18/2014 01:50 Chemically Wet 30.9F 32F 31F 95 5% 0.00 in 0% 11 mhos 1243 Unidentified Slight 0.01 in 0.0 iph
12/18/2014 01:45 Chemically Wet 31.1F 32F 31F 95 5% 0.00 in 0% 11 mhos 1190 Unidentified Slight 0.01 in 0.0 iph
12/18/2014 01:40 Chemically Wet 30.7F 32F 31F 95 4% - 17% 10 mhos 1052 Unidentified Slight 0.01 in 0.0 iph
12/18/2014 01:29 Chemically Wet 30.9F 32F 31F 95 4% - 17% 8 mhos 914 None None 0.01 in 0.0 iph
12/18/2014 01:19 Chemically Wet 30.7F 32F 31F 95 4% - 15% 10 mhos 1070 Unidentified Slight 0.01 in 0.0 iph
12/18/2014 01:15 Chemically Wet 30.7F 32F 31F 95 4% - 24% 9 mhos 956 Unidentified Slight 0.01 in 0.0 iph
12/18/2014 01:09 Chemically Wet 30.6F 32F 31F 95 3% - 37% 8 mhos 892 None None 0.01 in 0.0 iph
12/18/2014 00:59 Chemically Wet 30.4F 32F 31F 95 2% - 63% 5 mhos 577 Snow Slight 0.01 in 0.0 iph
12/18/2014 00:49 Chemically Wet 30.6F 32F 31F 65 2% - 67% 4 mhos 465 Unidentified Moderate 0.01 in 0.0 iph
12/18/2014 00:45 Chemically Wet 30.7F 32F 31F 95 2% - 65% 4 mhos 440 Unidentified Slight 0.01 in 0.0 iph
12/18/2014 00:39 Chemically Wet 30.7F 32F 31F 70 2% - 66% 4 mhos 433 None None 0.01 in 0.0 iph
12/18/2014 00:29 Chemically Wet 30.9F 32F 31F 85 2% - 61% 4 mhos 429 None None 0.01 in 0.0 iph
Date/Time
(MST)
Sf
Temp Chem Water Layer Surface Precipitation
Sf Sub Frz Factor Pct Depth IcePct Cond Salin Type Intens Accum Rate
12/18/2014 00:19 Chemically Wet 30.9F 32F 32F 75 2% - 63% 4 mhos 413 Unidentified Slight 0.01 in 0.0 iph
12/18/2014 00:16 Chemically Wet 31.3F 32F 32F 95 2% - 37% 4 mhos 407 Unidentified Slight 0.01 in 0.0 iph
12/18/2014 00:09 Chemically Wet 31.1F 32F 32F 65 2% - 58% 4 mhos 398 Unidentified Slight 0.01 in 0.0 iph
12/17/2014 23:59 Chemically Wet 30.9F 32F 32F 65 2% - 65% 4 mhos 392 Unidentified Slight 0.01 in 0.0 iph
12/17/2014 23:49 Chemically Wet 30.7F 32F 32F 40 1% - 71% 3 mhos 365 Unidentified Slight 0.01 in 0.0 iph
12/17/2014 23:46 Chemically Wet 30.7F 32F 32F 35 1% - 72% 3 mhos 348 Unidentified Slight 0.01 in 0.0 iph
12/17/2014 23:39 Chemically Wet 31.1F 32F 32F 40 1% - 58% 3 mhos 333 Unidentified Slight 0.01 in 0.0 iph
12/17/2014 23:29 Chemically Wet 30.6F 32F 31F 70 2% - 70% 4 mhos 421 Unidentified Slight 0.01 in 0.0 iph
12/17/2014 23:19 Chemically Wet 30.9F 32F 31F 30 2% - 62% 4 mhos 421 Unidentified Slight 0.01 in 0.0 iph
12/17/2014 23:15 Chemically Wet 30.7F 32F 31F 30 2% - 67% 4 mhos 422 Unidentified Slight 0.01 in 0.0 iph
12/17/2014 23:09 Chemically Wet 30.7F 32F 31F 25 2% - 67% 4 mhos 421 None None 0.01 in 0.0 iph
12/17/2014 22:59 Chemically Wet 30.7F 32F 31F 35 2% - 66% 4 mhos 424 Unidentified Slight 0.01 in 0.0 iph
12/17/2014 22:49 Chemically Wet 30.6F 32F 31F 30 2% - 70% 4 mhos 428 None None 0.01 in 0.0 iph
12/17/2014 22:45 Chemically Wet 30.6F 32F 31F 30 2% - 70% 4 mhos 429 Unidentified Slight 0.01 in 0.0 iph
12/17/2014 22:39 Chemically Wet 30.6F 32F 31F 40 2% - 70% 4 mhos 426 Unidentified Slight 0.01 in 0.0 iph
Date/Time
(MST)
Sf
Temp Chem Water Layer Surface Precipitation
Sf Sub Frz Factor Pct Depth IcePct Cond Salin Type Intens Accum Rate
12/17/2014 22:29 Chemically Wet 30.7F 32F 31F 50 2% - 67% 4 mhos 420 None None 0.01 in 0.0 iph
12/17/2014 22:19 Chemically Wet 30.6F 32F 32F 20 2% - 71% 4 mhos 410 Unidentified Slight 0.00 in 0.0 iph
12/17/2014 22:15 Chemically Wet 30.7F 32F 32F 20 2% - 68% 4 mhos 410 Unidentified Slight 0.00 in 0.0 iph
12/17/2014 22:08 Chemically Wet 30.9F 32F 32F 30 2% - 63% 4 mhos 411 Unidentified Slight 0.00 in 0.0 iph
12/17/2014 21:58 Chemically Wet 30.9F 32F 32F 20 2% - 63% 4 mhos 410 Unidentified Slight 0.00 in 0.0 iph
12/17/2014 21:48 Chemically Wet 30.7F 32F 32F 20 2% - 69% 4 mhos 395 None None 0.00 in 0.0 iph
12/17/2014 21:45 Chemically Wet 30.9F 32F 32F 20 2% - 64% 4 mhos 395 None None 0.00 in 0.0 iph
12/17/2014 21:38 Chemically Wet 30.7F 32F 32F 40 2% - 69% 4 mhos 396 None None 0.00 in 0.0 iph
12/17/2014 21:28 Chemically Wet 30.7F 32F 32F 20 2% - 69% 4 mhos 396 Unidentified Slight 0.00 in 0.0 iph
12/17/2014 21:18 Chemically Wet 30.7F 32F 32F 20 1% - 69% 4 mhos 385 Unidentified Slight 0.00 in 0.0 iph
12/17/2014 21:15 Chemically Wet 30.9F 32F 32F 20 1% - 65% 4 mhos 385 Unidentified Slight 0.00 in 0.0 iph
12/17/2014 21:08 Chemically Wet 30.9F 32F 32F 25 1% - 67% 3 mhos 368 Unidentified Slight 0.00 in 0.0 iph
12/17/2014 20:58 Chemically Wet 30.7F 32F 32F 20 1% - 71% 3 mhos 363 None None 0.00 in 0.0 iph
12/17/2014 20:48 Chemically Wet 30.7F 32F 32F 25 1% - 71% 3 mhos 362 Unidentified Slight 0.00 in 0.0 iph
12/17/2014 20:45 Chemically Wet 30.7F 32F 32F 20 1% - 72% 3 mhos 359 Unidentified Slight 0.00 in 0.0 iph
Date/Time
(MST)
Sf
Temp Chem Water Layer Surface Precipitation
Sf Sub Frz Factor Pct Depth IcePct Cond Salin Type Intens Accum Rate
12/17/2014 20:38 Chemically Wet 30.9F 32F 32F 20 1% - 69% 3 mhos 337 Unidentified Slight 0.00 in 0.0 iph
12/17/2014 20:28 Chemically Wet 31.1F 32F 32F 5 1% - 69% 3 mhos 300 Unidentified Slight 0.00 in 0.0 iph
12/17/2014 20:18 Chemically Wet 31.1F 32F 32F 5 1% - 68% 3 mhos 304 Unidentified Slight 0.00 in 0.0 iph
12/17/2014 20:15 Chemically Wet 31.1F 32F 32F 5 1% - 68% 3 mhos 304 Unidentified Slight 0.00 in 0.0 iph
12/17/2014 20:08 Chemically Wet 30.9F 32F 32F 5 1% - 72% 3 mhos 305 Unidentified Slight 0.00 in 0.0 iph
12/17/2014 19:58 Chemically Wet 30.7F 32F 32F 10 1% - 77% 3 mhos 294 Unidentified Slight 0.00 in 0.0 iph
12/17/2014 19:48 Chemically Wet 30.7F 32F 32F 5 1% - 80% 2 mhos 257 Unidentified Slight 0.00 in 0.0 iph
12/17/2014 19:45 Chemically Wet 30.7F 32F 32F 5 1% - 80% 2 mhos 255 Unidentified Slight 0.00 in 0.0 iph
12/17/2014 19:38 Chemically Wet 30.6F 32F 32F 10 1% - 83% 2 mhos 242 None None 0.00 in 0.0 iph
12/17/2014 19:28 Chemically Wet 30.4F 32F 32F 5 1% - 85% 2 mhos 240 None None 0.00 in 0.0 iph
12/17/2014 19:18 Ice Warning 30.4F 32F 32F 5 1% - 85% 2 mhos 230 Unidentified Slight 0.00 in 0.0 iph
12/17/2014 19:15 Chemically Wet 30.6F 32F 32F 5 1% - 84% 2 mhos 227 Unidentified Slight 0.00 in 0.0 iph
12/17/2014 19:08 Chemically Wet 30.7F 32F 32F 5 1% - 83% 2 mhos 219 Unidentified Slight 0.00 in 0.0 iph
12/17/2014 18:57 Ice Watch 31.1F 32F - 5 - - - 2 mhos 212 None None 0.00 in 0.0 iph
12/17/2014 18:47 Ice Watch 31.1F 32F - 5 - - - 2 mhos 212 None None 0.00 in 0.0 iph
Date/Time
(MST)
Sf
Temp Chem Water Layer Surface Precipitation
Sf Sub Frz Factor Pct Depth IcePct Cond Salin Type Intens Accum Rate
12/17/2014 18:45 Ice Watch 31.3F 32F - 5 - - - 2 mhos 211 None None 0.00 in 0.0 iph
12/17/2014 18:37 Ice Watch 31.1F 32F - 5 - - - 2 mhos 210 None None 0.00 in 0.0 iph
12/17/2014 18:27 Ice Watch 31.1F 32F - 5 - - - 2 mhos 203 None None 0.00 in 0.0 iph
12/17/2014 18:17 Ice Watch 31.1F 32F - 5 - - - 2 mhos 200 None None 0.00 in 0.0 iph
12/17/2014 18:15 Ice Watch 30.7F 32F - 5 - - - 2 mhos 194 None None 0.00 in 0.0 iph
12/17/2014 18:07 Ice Watch 30.4F 32F - 5 - - - 2 mhos 196 None None 0.00 in 0.0 iph
12/17/2014 17:57 Ice Watch 30.4F 32F - 5 - - - 2 mhos 190 None None 0.00 in 0.0 iph
12/17/2014 17:47 Ice Watch 30.4F 32F - 5 - - - 2 mhos 190 None None 0.00 in 0.0 iph
12/17/2014 17:46 Ice Watch 30.6F 32F - 5 - - - 2 mhos 190 None None 0.00 in 0.0 iph
12/17/2014 17:37 Ice Watch 30.7F 32F - 5 - - - 2 mhos 191 None None 0.00 in 0.0 iph
12/17/2014 17:27 Ice Watch 31.1F 32F - 5 - - - 2 mhos 190 None None 0.00 in 0.0 iph
12/17/2014 17:17 Ice Watch 30.7F 32F - 5 - - - 2 mhos 192 None None 0.00 in 0.0 iph
12/17/2014 17:15 Ice Watch 30.9F 32F - 5 - - - 2 mhos 193 None None 0.00 in 0.0 iph
12/17/2014 17:07 Ice Watch 31.1F 32F - 5 - - - 2 mhos 186 None None 0.00 in 0.0 iph
12/17/2014 16:57 Ice Watch 31.1F 32F - 5 - - - 2 mhos 183 None None 0.00 in 0.0 iph
Date/Time
(MST)
Sf
Temp Chem Water Layer Surface Precipitation
Sf Sub Frz Factor Pct Depth IcePct Cond Salin Type Intens Accum Rate
12/17/2014 16:47 Ice Watch 30.9F 32F - 5 - - - 2 mhos 181 None None 0.00 in 0.0 iph
12/17/2014 16:46 Ice Watch 31.1F 32F - 5 - - - 2 mhos 182 None None 0.00 in 0.0 iph
12/17/2014 16:37 Ice Watch 30.6F 32F - 5 - - - 2 mhos 178 None None 0.00 in 0.0 iph
12/17/2014 16:27 Ice Watch 31.1F 32F - 5 - - - 2 mhos 175 None None 0.00 in 0.0 iph
12/17/2014 16:17 Ice Watch 31.1F 32F - 5 - - - 2 mhos 172 None None 0.00 in 0.0 iph
12/17/2014 16:15 Ice Watch 31.3F 32F - 5 - - - 2 mhos 172 None None 0.00 in 0.0 iph
12/17/2014 16:07 Ice Watch 31.6F 32F - 5 - - - 2 mhos 170 None None 0.00 in 0.0 iph
12/17/2014 15:56 Trace Moisture 32.2F 32F - 5 - - - 2 mhos 170 None None 0.00 in 0.0 iph
12/17/2014 15:46 Trace Moisture 32.9F 32F - 5 - - - 2 mhos 172 None None 0.00 in 0.0 iph
12/17/2014 15:46 Trace Moisture 32.4F 32F - 5 - - - 2 mhos 172 None None 0.00 in 0.0 iph
12/17/2014 15:36 Trace Moisture 32.7F 32F - 5 - - - 2 mhos 174 None None 0.00 in 0.0 iph
12/17/2014 15:26 Trace Moisture 33.1F 32F - 5 - - - 2 mhos 176 None None 0.00 in 0.0 iph
12/17/2014 15:16 Dry 33.4F 32F - - - - - 2 mhos 179 None None 0.00 in 0.0 iph
12/17/2014 15:15 Dry 33.4F 32F - - - - - 2 mhos 179 None None 0.00 in 0.0 iph
12/17/2014 15:06 Dry 33.8F 32F - - - - - 2 mhos 182 None None 0.00 in 0.0 iph
Date/Time
(MST)
Sf
Temp Chem Water Layer Surface Precipitation
Sf Sub Frz Factor Pct Depth IcePct Cond Salin Type Intens Accum Rate
12/17/2014 14:56 Dry 34.2F 32F - - - - - 2 mhos 189 None None 0.00 in 0.0 iph
12/17/2014 14:46 Dry 34.3F 32F - - - - - 2 mhos 194 None None 0.00 in 0.0 iph
12/17/2014 14:45 Dry 34.3F 32F - - - - - 2 mhos 194 None None 0.00 in 0.0 iph
12/17/2014 14:36 Dry 34.9F 32F - - - - - 2 mhos 206 None None 0.00 in 0.0 iph
12/17/2014 14:26 Dry 35.1F 32F - - - - - 2 mhos 208 None None 0.00 in 0.0 iph
12/17/2014 14:16 Dry 35.6F 32F - - - - - 2 mhos 219 None None 0.00 in 0.0 iph
12/17/2014 14:15 Dry 35.6F 32F - - - - - 2 mhos 219 None None 0.00 in 0.0 iph
12/17/2014 14:06 Dry 35.1F 32F - - - - - 2 mhos 230 None None 0.00 in 0.0 iph
12/17/2014 13:56 Dry 34.5F 32F - - - - - 2 mhos 234 None None 0.00 in 0.0 iph
12/17/2014 13:46 Dry 33.8F 32F - - - - - 2 mhos 222 None None 0.00 in 0.0 iph
12/17/2014 13:45 Dry 33.8F 32F - - - - - 2 mhos 222 None None 0.00 in 0.0 iph
12/17/2014 13:36 Dry 33.6F 32F - - - - - 2 mhos 204 None None 0.00 in 0.0 iph
12/17/2014 13:26 Wet 33.1F 32F 32F 5 1% 0.00 in 0% 2 mhos 192 None None 0.00 in 0.0 iph
12/17/2014 13:16 Wet 32.2F 32F 32F 5 1% 0.00 in 0% 2 mhos 184 None None 0.00 in 0.0 iph
12/17/2014 13:16 Wet 32.2F 32F 32F 5 1% 0.00 in 0% 2 mhos 184 None None 0.00 in 0.0 iph
Date/Time
(MST)
Sf
Temp Chem Water Layer Surface Precipitation
Sf Sub Frz Factor Pct Depth IcePct Cond Salin Type Intens Accum Rate
12/17/2014 13:06 Chemically Wet 31.3F 32F 32F 5 1% - 70% 2 mhos 197 None None 0.00 in 0.0 iph
12/17/2014 12:56 Chemically Wet 31.1F 32F 32F 5 1% - 79% 2 mhos 200 None None 0.00 in 0.0 iph
12/17/2014 12:46 Chemically Wet 30.7F 32F 32F 5 1% - 84% 2 mhos 202 None None 0.00 in 0.0 iph
12/17/2014 12:45 Chemically Wet 30.7F 32F 32F 5 1% - 84% 2 mhos 204 None None 0.00 in 0.0 iph
12/17/2014 12:36 Chemically Wet 30.7F 32F 32F 5 1% - 84% 2 mhos 197 None None 0.00 in 0.0 iph
12/17/2014 12:30 Ice Warning 30.4F 32F 32F 5 1% - 87% 2 mhos 198 None None 0.00 in 0.0 iph
12/17/2014 12:25 Ice Warning 30.0F 32F 32F 5 1% - 90% 2 mhos 196 None None 0.00 in 0.0 iph
12/17/2014 12:15 Chemically Wet 30.7F 32F 32F 5 1% - 83% 2 mhos 209 None None 0.00 in 0.0 iph
12/17/2014 12:15 Chemically Wet 30.7F 32F 32F 5 1% - 83% 2 mhos 209 None None 0.00 in 0.0 iph
12/17/2014 12:05 Chemically Wet 30.7F 32F 32F 5 1% - 84% 2 mhos 204 None None 0.00 in 0.0 iph
12/17/2014 11:55 Chemically Wet 31.1F 32F 32F 5 1% - 79% 2 mhos 205 None None 0.00 in 0.0 iph
12/17/2014 11:45 Chemically Wet 31.1F 32F 32F 5 1% - 74% 2 mhos 206 None None 0.00 in 0.0 iph
12/17/2014 11:45 Chemically Wet 31.1F 32F 32F 5 1% - 74% 2 mhos 206 None None 0.00 in 0.0 iph
12/17/2014 11:35 Chemically Wet 30.9F 32F 32F 5 1% - 81% 2 mhos 209 None None 0.00 in 0.0 iph
12/17/2014 11:25 Ice Warning 30.2F 32F 32F 5 1% - 88% 2 mhos 206 None None 0.00 in 0.0 iph
Date/Time
(MST)
Sf
Temp Chem Water Layer Surface Precipitation
Sf Sub Frz Factor Pct Depth IcePct Cond Salin Type Intens Accum Rate
12/17/2014 11:15 Ice Warning 29.1F 32F 32F 5 1% - 93% 2 mhos 207 None None 0.00 in 0.0 iph
12/17/2014 11:15 Ice Warning 29.1F 32F 32F 5 1% - 93% 2 mhos 207 None None 0.00 in 0.0 iph
12/17/2014 11:05 Ice Warning 28.0F 32F 32F 5 1% - 95% 2 mhos 212 None None 0.00 in 0.0 iph
12/17/2014 10:55 Ice Warning 27.7F 32F 32F 5 1% - 95% 2 mhos 211 None None 0.00 in 0.0 iph
12/17/2014 10:45 Ice Warning 27.0F 32F 32F 10 1% - 96% 2 mhos 210 None None 0.00 in 0.0 iph
12/17/2014 10:45 Ice Warning 27.0F 32F 32F 10 1% - 96% 2 mhos 210 None None 0.00 in 0.0 iph
12/17/2014 10:35 Ice Warning 27.0F 32F 32F 10 1% - 96% 2 mhos 210 None None 0.00 in 0.0 iph
12/17/2014 10:25 Ice Warning 27.0F 32F 32F 30 1% - 96% 2 mhos 206 None None 0.00 in 0.0 iph
12/17/2014 10:15 Ice Warning 27.5F 32F 32F 10 1% - 96% 2 mhos 205 None None 0.00 in 0.0 iph
12/17/2014 10:15 Ice Warning 27.5F 32F 32F 10 1% - 96% 2 mhos 205 None None 0.00 in 0.0 iph
12/17/2014 10:05 Ice Warning 27.1F 32F 32F 20 1% - 96% 2 mhos 209 None None 0.00 in 0.0 iph
12/17/2014 09:55 Ice Warning 27.0F 32F 32F 15 1% - 96% 2 mhos 196 None None 0.00 in 0.0 iph
12/17/2014 09:45 Ice Warning 26.8F 32F 32F 30 1% - 96% 2 mhos 198 None None 0.00 in 0.0 iph
12/17/2014 09:45 Ice Warning 26.8F 32F 32F 30 1% - 96% 2 mhos 198 None None 0.00 in 0.0 iph
12/17/2014 09:35 Ice Warning 26.6F 32F 32F 20 1% - 96% 2 mhos 200 None None 0.00 in 0.0 iph
Date/Time
(MST)
Sf
Temp Chem Water Layer Surface Precipitation
Sf Sub Frz Factor Pct Depth IcePct Cond Salin Type Intens Accum Rate
12/17/2014 09:25 Ice Warning 26.4F 32F 32F 35 1% - 96% 2 mhos 198 None None 0.00 in 0.0 iph
12/17/2014 09:15 Ice Warning 26.6F 32F 32F 20 1% - 96% 2 mhos 197 None None 0.00 in 0.0 iph
12/17/2014 09:15 Ice Warning 26.6F 32F 32F 20 1% - 96% 2 mhos 197 None None 0.00 in 0.0 iph
12/17/2014 09:05 Ice Warning 26.1F 32F 32F 20 1% - 97% 2 mhos 193 None None 0.00 in 0.0 iph
12/17/2014 08:54 Ice Warning 25.7F 32F 32F 60 1% - 97% 2 mhos 196 None None 0.00 in 0.0 iph
12/17/2014 08:45 Ice Warning 25.7F 32F 32F 40 1% - 97% 2 mhos 187 None None 0.00 in 0.0 iph
12/17/2014 08:44 Ice Warning 25.5F 32F 32F 40 1% - 97% 2 mhos 228 None None 0.00 in 0.0 iph
12/17/2014 08:34 Ice Warning 25.9F 32F 32F 45 1% - 96% 2 mhos 227 None None 0.00 in 0.0 iph
12/17/2014 08:30 Ice Warning 25.5F 32F 32F 35 1% - 96% 2 mhos 249 None None 0.00 in 0.0 iph
12/17/2014 08:24 Ice Warning 25.5F 32F 32F 35 1% - 96% 2 mhos 249 None None 0.00 in 0.0 iph
12/17/2014 08:15 Ice Warning 25.9F 32F 32F 35 1% - 96% 2 mhos 245 None None 0.00 in 0.0 iph
12/17/2014 08:14 Ice Warning 26.1F 32F 32F 35 1% - 96% 2 mhos 245 None None 0.00 in 0.0 iph
12/17/2014 08:04 Ice Warning 26.2F 32F 32F 90 1% - 96% 2 mhos 232 None None 0.00 in 0.0 iph
12/17/2014 07:54 Ice Warning 26.4F 32F 32F 45 1% - 96% 2 mhos 229 None None 0.00 in 0.0 iph
12/17/2014 07:45 Ice Warning 26.2F 32F 32F 80 1% - 95% 2 mhos 284 None None 0.00 in 0.0 iph
Date/Time
(MST)
Sf
Temp Chem Water Layer Surface Precipitation
Sf Sub Frz Factor Pct Depth IcePct Cond Salin Type Intens Accum Rate
12/17/2014 07:44 Ice Warning 26.4F 32F 32F 80 1% - 95% 2 mhos 283 None None 0.00 in 0.0 iph
12/17/2014 07:34 Ice Warning 25.9F 32F 32F 65 1% - 96% 2 mhos 279 None None 0.00 in 0.0 iph
12/17/2014 07:24 Ice Warning 26.4F 32F 32F 40 1% - 95% 2 mhos 280 None None 0.00 in 0.0 iph
12/17/2014 07:15 Ice Warning 26.8F 32F 32F 85 1% - 94% 3 mhos 291 None None 0.00 in 0.0 iph
12/17/2014 07:14 Ice Warning 26.8F 32F 32F 85 1% - 94% 3 mhos 291 None None 0.00 in 0.0 iph
12/17/2014 07:04 Ice Warning 27.5F 32F 32F 65 1% - 94% 2 mhos 269 None None 0.00 in 0.0 iph
12/17/2014 06:54 Ice Warning 27.3F 32F 32F 55 1% - 94% 2 mhos 267 None None 0.00 in 0.0 iph
12/17/2014 06:45 Ice Warning 27.5F 32F 32F 75 1% - 94% 2 mhos 269 None None 0.00 in 0.0 iph
12/17/2014 06:44 Ice Warning 27.7F 32F 32F 95 1% - 94% 2 mhos 269 None None 0.00 in 0.0 iph
12/17/2014 06:34 Ice Warning 27.3F 32F 32F 80 1% - 94% 2 mhos 270 None None 0.00 in 0.0 iph
12/17/2014 06:24 Ice Warning 27.1F 32F 32F 95 1% - 95% 2 mhos 259 None None 0.00 in 0.0 iph
12/17/2014 06:15 Ice Warning 27.3F 32F 32F 95 1% - 95% 2 mhos 252 None None 0.00 in 0.0 iph
12/17/2014 06:14 Ice Warning 27.3F 32F 32F 95 1% - 95% 2 mhos 253 None None 0.00 in 0.0 iph
12/17/2014 06:04 Ice Warning 27.3F 32F 32F 90 1% - 95% 2 mhos 224 None None 0.00 in 0.0 iph
12/17/2014 05:54 Ice Warning 27.3F 32F 32F 95 1% - 95% 2 mhos 226 None None 0.00 in 0.0 iph
Date/Time
(MST)
Sf
Temp Chem Water Layer Surface Precipitation
Sf Sub Frz Factor Pct Depth IcePct Cond Salin Type Intens Accum Rate
12/17/2014 05:45 Ice Warning 27.3F 32F 32F 95 1% - 93% 3 mhos 344 None None 0.00 in 0.0 iph
12/17/2014 05:43 Ice Warning 27.3F 32F 32F 95 1% - 93% 3 mhos 343 None None 0.00 in 0.0 iph
12/17/2014 05:33 Ice Warning 27.7F 32F 32F 95 1% - 92% 3 mhos 374 None None 0.00 in 0.0 iph
12/17/2014 05:23 Ice Warning 27.3F 32F 32F 95 1% - 94% 2 mhos 275 None None 0.00 in 0.0 iph
12/17/2014 05:15 Ice Warning 27.5F 32F 32F 95 1% - 94% 2 mhos 285 None None 0.00 in 0.0 iph
12/17/2014 05:13 Ice Warning 27.5F 32F 32F 95 1% - 93% 3 mhos 342 None None 0.00 in 0.0 iph
12/17/2014 05:03 Ice Warning 27.3F 32F 32F 95 1% - 95% 2 mhos 237 None None 0.00 in 0.0 iph
12/17/2014 04:53 Ice Warning 27.5F 32F 32F 95 1% - 96% 2 mhos 188 None None 0.00 in 0.0 iph
12/17/2014 04:46 Ice Warning 27.5F 32F 32F 95 1% - 93% 3 mhos 306 None None 0.00 in 0.0 iph
12/17/2014 04:43 Ice Warning 27.5F 32F 32F 95 1% - 93% 3 mhos 302 None None 0.00 in 0.0 iph
12/17/2014 04:33 Ice Warning 27.7F 32F 32F 95 1% - 95% 2 mhos 221 None None 0.00 in 0.0 iph
12/17/2014 04:23 Ice Warning 27.3F 32F 32F 95 1% - 93% 3 mhos 338 None None 0.00 in 0.0 iph
12/17/2014 04:15 Ice Warning 27.7F 32F 32F 95 1% - 92% 3 mhos 341 None None 0.00 in 0.0 iph
12/17/2014 04:13 Ice Warning 27.5F 32F 32F 95 1% - 93% 3 mhos 342 None None 0.00 in 0.0 iph
12/17/2014 04:03 Ice Warning 27.5F 32F 32F 95 1% - 93% 3 mhos 342 None None 0.00 in 0.0 iph
Date/Time
(MST)
Sf
Temp Chem Water Layer Surface Precipitation
Sf Sub Frz Factor Pct Depth IcePct Cond Salin Type Intens Accum Rate
12/17/2014 03:53 Ice Warning 27.7F 32F 32F 95 1% - 93% 3 mhos 309 None None 0.00 in 0.0 iph
12/17/2014 03:45 Ice Warning 27.7F 32F 32F 95 1% - 94% 2 mhos 273 Snow Slight 0.00 in 0.0 iph
12/17/2014 03:43 Ice Warning 27.7F 32F 32F 95 1% - 94% 2 mhos 245 None None 0.00 in 0.0 iph
12/17/2014 03:33 Ice Warning 27.7F 32F 32F 95 1% - 96% 2 mhos 182 Snow Slight 0.00 in 0.0 iph
12/17/2014 03:30 Ice Warning 27.7F 32F 32F 95 1% - 97% 1 mhos 134 Snow Slight 0.00 in 0.0 iph
12/17/2014 03:23 Ice Warning 27.7F 32F 32F 95 0% - 98% 1 mhos 82 Snow Slight 0.00 in 0.0 iph
12/17/2014 03:15 Ice Warning 27.7F 32F 32F 90 0% - 98% 1 mhos 71 Snow Slight 0.00 in 0.0 iph
12/17/2014 03:13 Ice Warning 27.7F 32F 32F 95 0% - 98% 1 mhos 68 Snow Slight 0.00 in 0.0 iph
12/17/2014 03:03 Ice Warning 28.4F 32F 32F 60 0% - 99% 0 mhos 50 Snow Slight 0.00 in 0.0 iph
12/17/2014 02:53 Ice Warning 28.4F 32F 32F 20 0% - 99% 0 mhos 44 None None 0.00 in 0.0 iph
12/17/2014 02:45 Ice Warning 28.6F 32F 32F 35 0% - 99% 0 mhos 44 None None 0.00 in 0.0 iph
12/17/2014 02:43 Ice Warning 28.8F 32F 32F 20 0% - 99% 0 mhos 45 None None 0.00 in 0.0 iph
12/17/2014 02:32 Ice Warning 28.8F 32F 32F 25 0% - 99% 0 mhos 45 None None 0.00 in 0.0 iph
Change End Date:
Copyright © 1998-2005 Surface Systems, Inc.
All Rights Reserved
Send comments about the data to:
SCAN Web ® is a registered trademark of Surface Systems, Inc.
SCAN Web Version 5.6